sensor_id;sensor_type;location;lat;lon;timestamp;P1;durP1;ratioP1;P2;durP2;ratioP2
13002;SDS011;6566;57.702;11.984;2022-10-16T00:02:08;14.68;;;5.93;;
13002;SDS011;6566;57.702;11.984;2022-10-16T00:04:33;16.00;;;6.53;;
13002;SDS011;6566;57.702;11.984;2022-10-16T00:07:01;17.25;;;5.50;;
13002;SDS011;6566;57.702;11.984;2022-10-16T00:09:27;11.18;;;4.88;;
13002;SDS011;6566;57.702;11.984;2022-10-16T00:11:54;18.15;;;5.57;;
13002;SDS011;6566;57.702;11.984;2022-10-16T00:14:20;12.23;;;4.43;;
13002;SDS011;6566;57.702;11.984;2022-10-16T00:16:47;10.07;;;3.50;;
13002;SDS011;6566;57.702;11.984;2022-10-16T00:19:13;9.70;;;3.97;;
13002;SDS011;6566;57.702;11.984;2022-10-16T00:21:39;10.80;;;3.45;;
13002;SDS011;6566;57.702;11.984;2022-10-16T00:24:07;11.38;;;3.28;;
13002;SDS011;6566;57.702;11.984;2022-10-16T00:26:33;12.32;;;3.45;;
13002;SDS011;6566;57.702;11.984;2022-10-16T00:29:00;13.55;;;3.33;;
13002;SDS011;6566;57.702;11.984;2022-10-16T00:31:30;11.10;;;3.47;;
13002;SDS011;6566;57.702;11.984;2022-10-16T00:33:57;10.93;;;2.97;;
13002;SDS011;6566;57.702;11.984;2022-10-16T00:36:24;16.23;;;3.05;;
13002;SDS011;6566;57.702;11.984;2022-10-16T00:38:52;9.45;;;2.90;;
13002;SDS011;6566;57.702;11.984;2022-10-16T00:41:20;9.55;;;2.90;;
13002;SDS011;6566;57.702;11.984;2022-10-16T00:43:57;13.18;;;3.22;;
13002;SDS011;6566;57.702;11.984;2022-10-16T00:46:31;9.20;;;2.78;;
13002;SDS011;6566;57.702;11.984;2022-10-16T00:49:07;10.10;;;2.50;;
13002;SDS011;6566;57.702;11.984;2022-10-16T00:51:36;12.90;;;2.72;;
13002;SDS011;6566;57.702;11.984;2022-10-16T00:54:21;10.25;;;2.22;;
13002;SDS011;6566;57.702;11.984;2022-10-16T00:56:49;11.73;;;2.35;;
13002;SDS011;6566;57.702;11.984;2022-10-16T00:59:18;9.77;;;2.70;;
13002;SDS011;6566;57.702;11.984;2022-10-16T01:01:44;12.70;;;2.67;;
13002;SDS011;6566;57.702;11.984;2022-10-16T01:04:09;12.07;;;2.85;;
13002;SDS011;6566;57.702;11.984;2022-10-16T01:17:31;10.65;;;2.70;;
13002;SDS011;6566;57.702;11.984;2022-10-16T01:22:44;8.35;;;2.95;;
13002;SDS011;6566;57.702;11.984;2022-10-16T01:25:27;16.85;;;2.60;;
13002;SDS011;6566;57.702;11.984;2022-10-16T01:27:56;6.50;;;2.28;;
13002;SDS011;6566;57.702;11.984;2022-10-16T01:30:30;11.23;;;2.70;;
13002;SDS011;6566;57.702;11.984;2022-10-16T01:33:00;10.73;;;2.38;;
13002;SDS011;6566;57.702;11.984;2022-10-16T01:35:29;19.15;;;3.13;;
13002;SDS011;6566;57.702;11.984;2022-10-16T01:38:10;10.57;;;2.53;;
13002;SDS011;6566;57.702;11.984;2022-10-16T01:40:39;14.48;;;2.20;;
13002;SDS011;6566;57.702;11.984;2022-10-16T01:43:08;19.73;;;3.58;;
13002;SDS011;6566;57.702;11.984;2022-10-16T01:45:37;12.95;;;2.70;;
13002;SDS011;6566;57.702;11.984;2022-10-16T01:48:04;12.90;;;2.67;;
13002;SDS011;6566;57.702;11.984;2022-10-16T01:50:34;9.88;;;2.45;;
13002;SDS011;6566;57.702;11.984;2022-10-16T01:53:02;19.85;;;3.53;;
13002;SDS011;6566;57.702;11.984;2022-10-16T01:55:32;10.45;;;2.08;;
13002;SDS011;6566;57.702;11.984;2022-10-16T01:58:00;14.32;;;2.65;;
13002;SDS011;6566;57.702;11.984;2022-10-16T02:00:27;16.75;;;2.30;;
13002;SDS011;6566;57.702;11.984;2022-10-16T02:02:56;18.52;;;3.17;;
13002;SDS011;6566;57.702;11.984;2022-10-16T02:05:28;11.32;;;2.45;;
13002;SDS011;6566;57.702;11.984;2022-10-16T02:07:55;11.68;;;2.78;;
13002;SDS011;6566;57.702;11.984;2022-10-16T02:10:20;14.60;;;2.42;;
13002;SDS011;6566;57.702;11.984;2022-10-16T02:12:50;12.32;;;2.65;;
13002;SDS011;6566;57.702;11.984;2022-10-16T02:15:17;12.60;;;2.58;;
13002;SDS011;6566;57.702;11.984;2022-10-16T02:17:43;12.50;;;2.97;;
13002;SDS011;6566;57.702;11.984;2022-10-16T02:20:10;14.65;;;3.63;;
13002;SDS011;6566;57.702;11.984;2022-10-16T02:22:41;11.52;;;2.67;;
13002;SDS011;6566;57.702;11.984;2022-10-16T02:25:30;13.50;;;2.55;;
13002;SDS011;6566;57.702;11.984;2022-10-16T02:28:24;11.40;;;2.42;;
13002;SDS011;6566;57.702;11.984;2022-10-16T02:30:52;13.15;;;3.50;;
13002;SDS011;6566;57.702;11.984;2022-10-16T02:33:21;11.40;;;2.95;;
13002;SDS011;6566;57.702;11.984;2022-10-16T02:35:48;16.30;;;2.67;;
13002;SDS011;6566;57.702;11.984;2022-10-16T02:38:18;12.05;;;2.47;;
13002;SDS011;6566;57.702;11.984;2022-10-16T02:40:46;16.40;;;2.33;;
13002;SDS011;6566;57.702;11.984;2022-10-16T02:43:13;13.13;;;2.60;;
13002;SDS011;6566;57.702;11.984;2022-10-16T02:45:40;16.40;;;2.50;;
13002;SDS011;6566;57.702;11.984;2022-10-16T02:48:06;10.40;;;2.35;;
13002;SDS011;6566;57.702;11.984;2022-10-16T02:50:36;14.70;;;2.60;;
13002;SDS011;6566;57.702;11.984;2022-10-16T02:53:02;12.85;;;2.67;;
13002;SDS011;6566;57.702;11.984;2022-10-16T02:55:29;15.02;;;2.10;;
13002;SDS011;6566;57.702;11.984;2022-10-16T02:57:55;12.52;;;2.58;;
13002;SDS011;6566;57.702;11.984;2022-10-16T03:00:22;11.43;;;2.88;;
13002;SDS011;6566;57.702;11.984;2022-10-16T03:02:47;16.13;;;2.97;;
13002;SDS011;6566;57.702;11.984;2022-10-16T03:05:14;9.68;;;2.33;;
13002;SDS011;6566;57.702;11.984;2022-10-16T03:07:39;15.27;;;2.47;;
13002;SDS011;6566;57.702;11.984;2022-10-16T03:10:06;13.05;;;2.60;;
13002;SDS011;6566;57.702;11.984;2022-10-16T03:12:33;11.80;;;2.53;;
13002;SDS011;6566;57.702;11.984;2022-10-16T03:15:01;16.30;;;3.22;;
13002;SDS011;6566;57.702;11.984;2022-10-16T03:17:28;10.00;;;2.20;;
13002;SDS011;6566;57.702;11.984;2022-10-16T03:19:54;14.30;;;2.60;;
13002;SDS011;6566;57.702;11.984;2022-10-16T03:22:21;13.80;;;2.75;;
13002;SDS011;6566;57.702;11.984;2022-10-16T03:24:47;17.23;;;2.85;;
13002;SDS011;6566;57.702;11.984;2022-10-16T03:27:14;15.00;;;3.13;;
13002;SDS011;6566;57.702;11.984;2022-10-16T03:29:41;8.75;;;2.38;;
13002;SDS011;6566;57.702;11.984;2022-10-16T03:32:06;14.23;;;3.38;;
13002;SDS011;6566;57.702;11.984;2022-10-16T03:34:32;12.88;;;3.30;;
13002;SDS011;6566;57.702;11.984;2022-10-16T03:36:59;12.13;;;2.60;;
13002;SDS011;6566;57.702;11.984;2022-10-16T03:39:24;16.63;;;2.80;;
13002;SDS011;6566;57.702;11.984;2022-10-16T03:41:51;12.75;;;2.80;;
13002;SDS011;6566;57.702;11.984;2022-10-16T03:44:17;15.18;;;3.33;;
13002;SDS011;6566;57.702;11.984;2022-10-16T03:46:43;11.98;;;2.88;;
13002;SDS011;6566;57.702;11.984;2022-10-16T03:49:10;12.48;;;2.80;;
13002;SDS011;6566;57.702;11.984;2022-10-16T03:51:36;11.77;;;2.90;;
13002;SDS011;6566;57.702;11.984;2022-10-16T03:54:02;13.73;;;2.85;;
13002;SDS011;6566;57.702;11.984;2022-10-16T03:56:29;12.32;;;2.67;;
13002;SDS011;6566;57.702;11.984;2022-10-16T03:58:54;10.90;;;2.65;;
13002;SDS011;6566;57.702;11.984;2022-10-16T04:01:21;10.77;;;2.50;;
13002;SDS011;6566;57.702;11.984;2022-10-16T04:03:48;12.43;;;3.03;;
13002;SDS011;6566;57.702;11.984;2022-10-16T04:06:14;16.23;;;2.92;;
13002;SDS011;6566;57.702;11.984;2022-10-16T04:08:41;16.30;;;2.83;;
13002;SDS011;6566;57.702;11.984;2022-10-16T04:11:08;10.23;;;2.80;;
13002;SDS011;6566;57.702;11.984;2022-10-16T04:13:33;16.10;;;2.67;;
13002;SDS011;6566;57.702;11.984;2022-10-16T04:16:00;11.40;;;2.72;;
13002;SDS011;6566;57.702;11.984;2022-10-16T04:18:25;12.27;;;2.70;;
13002;SDS011;6566;57.702;11.984;2022-10-16T04:20:54;8.63;;;2.60;;
13002;SDS011;6566;57.702;11.984;2022-10-16T04:23:20;17.35;;;3.55;;
13002;SDS011;6566;57.702;11.984;2022-10-16T04:25:49;10.48;;;2.67;;
13002;SDS011;6566;57.702;11.984;2022-10-16T04:28:18;11.75;;;2.45;;
13002;SDS011;6566;57.702;11.984;2022-10-16T04:30:45;11.32;;;3.47;;
13002;SDS011;6566;57.702;11.984;2022-10-16T04:33:11;13.90;;;2.88;;
13002;SDS011;6566;57.702;11.984;2022-10-16T04:35:39;11.52;;;2.67;;
13002;SDS011;6566;57.702;11.984;2022-10-16T04:38:05;14.65;;;2.60;;
13002;SDS011;6566;57.702;11.984;2022-10-16T04:40:32;12.15;;;2.53;;
13002;SDS011;6566;57.702;11.984;2022-10-16T04:42:59;18.13;;;3.28;;
13002;SDS011;6566;57.702;11.984;2022-10-16T04:45:26;16.05;;;2.80;;
13002;SDS011;6566;57.702;11.984;2022-10-16T04:47:56;18.38;;;2.88;;
13002;SDS011;6566;57.702;11.984;2022-10-16T04:50:21;16.67;;;2.72;;
13002;SDS011;6566;57.702;11.984;2022-10-16T04:52:47;11.25;;;2.70;;
13002;SDS011;6566;57.702;11.984;2022-10-16T04:55:14;18.65;;;2.72;;
13002;SDS011;6566;57.702;11.984;2022-10-16T04:57:41;12.90;;;2.63;;
13002;SDS011;6566;57.702;11.984;2022-10-16T05:00:08;16.42;;;3.42;;
13002;SDS011;6566;57.702;11.984;2022-10-16T05:02:36;14.30;;;3.45;;
13002;SDS011;6566;57.702;11.984;2022-10-16T05:05:02;15.27;;;3.90;;
13002;SDS011;6566;57.702;11.984;2022-10-16T05:07:28;14.13;;;3.40;;
13002;SDS011;6566;57.702;11.984;2022-10-16T05:09:54;11.70;;;3.10;;
13002;SDS011;6566;57.702;11.984;2022-10-16T05:12:19;18.90;;;3.67;;
13002;SDS011;6566;57.702;11.984;2022-10-16T05:14:44;12.73;;;3.88;;
13002;SDS011;6566;57.702;11.984;2022-10-16T05:17:10;15.88;;;3.85;;
13002;SDS011;6566;57.702;11.984;2022-10-16T05:19:37;19.70;;;3.63;;
13002;SDS011;6566;57.702;11.984;2022-10-16T05:22:04;14.15;;;3.38;;
13002;SDS011;6566;57.702;11.984;2022-10-16T05:24:30;15.48;;;3.63;;
13002;SDS011;6566;57.702;11.984;2022-10-16T05:26:57;14.30;;;3.65;;
13002;SDS011;6566;57.702;11.984;2022-10-16T05:29:23;20.33;;;4.32;;
13002;SDS011;6566;57.702;11.984;2022-10-16T05:31:52;15.35;;;3.75;;
13002;SDS011;6566;57.702;11.984;2022-10-16T05:34:19;13.05;;;3.88;;
13002;SDS011;6566;57.702;11.984;2022-10-16T05:36:46;17.15;;;3.97;;
13002;SDS011;6566;57.702;11.984;2022-10-16T05:39:13;15.40;;;3.50;;
13002;SDS011;6566;57.702;11.984;2022-10-16T05:41:39;13.57;;;3.78;;
13002;SDS011;6566;57.702;11.984;2022-10-16T05:44:05;15.85;;;3.67;;
13002;SDS011;6566;57.702;11.984;2022-10-16T05:46:32;15.23;;;3.80;;
13002;SDS011;6566;57.702;11.984;2022-10-16T05:48:59;19.45;;;4.07;;
13002;SDS011;6566;57.702;11.984;2022-10-16T05:51:25;15.90;;;3.55;;
13002;SDS011;6566;57.702;11.984;2022-10-16T05:53:52;15.15;;;4.35;;
13002;SDS011;6566;57.702;11.984;2022-10-16T05:56:17;20.30;;;4.22;;
13002;SDS011;6566;57.702;11.984;2022-10-16T05:58:47;13.48;;;3.88;;
13002;SDS011;6566;57.702;11.984;2022-10-16T06:01:14;13.00;;;4.25;;
13002;SDS011;6566;57.702;11.984;2022-10-16T06:03:41;12.82;;;4.10;;
13002;SDS011;6566;57.702;11.984;2022-10-16T06:06:17;16.08;;;3.90;;
13002;SDS011;6566;57.702;11.984;2022-10-16T06:08:43;17.13;;;4.90;;
13002;SDS011;6566;57.702;11.984;2022-10-16T06:11:16;12.75;;;4.40;;
13002;SDS011;6566;57.702;11.984;2022-10-16T06:13:42;16.13;;;4.78;;
13002;SDS011;6566;57.702;11.984;2022-10-16T06:16:09;13.20;;;4.90;;
13002;SDS011;6566;57.702;11.984;2022-10-16T06:18:39;16.73;;;5.13;;
13002;SDS011;6566;57.702;11.984;2022-10-16T06:21:10;14.35;;;4.68;;
13002;SDS011;6566;57.702;11.984;2022-10-16T06:23:36;21.27;;;6.00;;
13002;SDS011;6566;57.702;11.984;2022-10-16T06:26:09;19.50;;;5.55;;
13002;SDS011;6566;57.702;11.984;2022-10-16T06:28:36;20.15;;;5.32;;
13002;SDS011;6566;57.702;11.984;2022-10-16T06:31:04;13.70;;;4.70;;
13002;SDS011;6566;57.702;11.984;2022-10-16T06:33:31;16.13;;;5.00;;
13002;SDS011;6566;57.702;11.984;2022-10-16T06:36:09;14.98;;;4.47;;
13002;SDS011;6566;57.702;11.984;2022-10-16T06:38:36;17.67;;;4.85;;
13002;SDS011;6566;57.702;11.984;2022-10-16T06:41:03;15.43;;;4.40;;
13002;SDS011;6566;57.702;11.984;2022-10-16T06:43:31;14.85;;;5.32;;
13002;SDS011;6566;57.702;11.984;2022-10-16T06:46:03;10.70;;;4.50;;
13002;SDS011;6566;57.702;11.984;2022-10-16T06:48:30;12.40;;;4.20;;
13002;SDS011;6566;57.702;11.984;2022-10-16T06:50:56;9.82;;;3.70;;
13002;SDS011;6566;57.702;11.984;2022-10-16T06:53:23;12.27;;;3.33;;
13002;SDS011;6566;57.702;11.984;2022-10-16T06:55:50;10.68;;;3.03;;
13002;SDS011;6566;57.702;11.984;2022-10-16T06:58:17;11.68;;;2.72;;
13002;SDS011;6566;57.702;11.984;2022-10-16T07:00:44;11.63;;;4.00;;
13002;SDS011;6566;57.702;11.984;2022-10-16T07:03:11;18.90;;;3.50;;
13002;SDS011;6566;57.702;11.984;2022-10-16T07:05:40;11.15;;;2.70;;
13002;SDS011;6566;57.702;11.984;2022-10-16T07:08:07;8.88;;;2.53;;
13002;SDS011;6566;57.702;11.984;2022-10-16T07:10:57;7.65;;;2.40;;
13002;SDS011;6566;57.702;11.984;2022-10-16T07:13:27;7.57;;;2.85;;
13002;SDS011;6566;57.702;11.984;2022-10-16T07:15:54;10.38;;;2.72;;
13002;SDS011;6566;57.702;11.984;2022-10-16T07:18:20;7.45;;;2.80;;
13002;SDS011;6566;57.702;11.984;2022-10-16T07:20:48;11.27;;;3.10;;
13002;SDS011;6566;57.702;11.984;2022-10-16T07:23:15;9.63;;;3.53;;
13002;SDS011;6566;57.702;11.984;2022-10-16T07:25:41;12.55;;;2.83;;
13002;SDS011;6566;57.702;11.984;2022-10-16T07:28:08;7.95;;;2.70;;
13002;SDS011;6566;57.702;11.984;2022-10-16T07:30:36;10.80;;;3.15;;
13002;SDS011;6566;57.702;11.984;2022-10-16T07:33:02;12.90;;;2.38;;
13002;SDS011;6566;57.702;11.984;2022-10-16T07:35:28;9.00;;;2.38;;
13002;SDS011;6566;57.702;11.984;2022-10-16T07:37:54;7.25;;;1.70;;
13002;SDS011;6566;57.702;11.984;2022-10-16T07:40:20;10.32;;;2.22;;
13002;SDS011;6566;57.702;11.984;2022-10-16T07:42:46;10.45;;;2.10;;
13002;SDS011;6566;57.702;11.984;2022-10-16T07:45:13;11.07;;;2.28;;
13002;SDS011;6566;57.702;11.984;2022-10-16T07:47:40;13.07;;;2.22;;
13002;SDS011;6566;57.702;11.984;2022-10-16T07:50:06;14.35;;;2.50;;
13002;SDS011;6566;57.702;11.984;2022-10-16T07:52:32;10.07;;;1.83;;
13002;SDS011;6566;57.702;11.984;2022-10-16T07:54:58;7.70;;;1.80;;
13002;SDS011;6566;57.702;11.984;2022-10-16T07:57:24;12.75;;;2.60;;
13002;SDS011;6566;57.702;11.984;2022-10-16T07:59:51;12.32;;;2.10;;
13002;SDS011;6566;57.702;11.984;2022-10-16T08:02:17;14.82;;;2.70;;
13002;SDS011;6566;57.702;11.984;2022-10-16T08:04:46;12.60;;;2.28;;
13002;SDS011;6566;57.702;11.984;2022-10-16T08:07:12;13.60;;;2.60;;
13002;SDS011;6566;57.702;11.984;2022-10-16T08:09:40;12.07;;;2.05;;
13002;SDS011;6566;57.702;11.984;2022-10-16T08:12:07;16.33;;;2.45;;
13002;SDS011;6566;57.702;11.984;2022-10-16T08:14:32;14.77;;;2.85;;
13002;SDS011;6566;57.702;11.984;2022-10-16T08:17:00;12.30;;;2.80;;
13002;SDS011;6566;57.702;11.984;2022-10-16T08:19:28;14.45;;;2.75;;
13002;SDS011;6566;57.702;11.984;2022-10-16T08:21:56;20.80;;;3.30;;
13002;SDS011;6566;57.702;11.984;2022-10-16T08:24:23;12.95;;;2.53;;
13002;SDS011;6566;57.702;11.984;2022-10-16T08:26:50;9.50;;;2.40;;
13002;SDS011;6566;57.702;11.984;2022-10-16T08:29:16;18.90;;;3.00;;
13002;SDS011;6566;57.702;11.984;2022-10-16T08:31:43;12.13;;;2.97;;
13002;SDS011;6566;57.702;11.984;2022-10-16T08:34:10;12.77;;;2.50;;
13002;SDS011;6566;57.702;11.984;2022-10-16T08:36:36;15.77;;;4.03;;
13002;SDS011;6566;57.702;11.984;2022-10-16T08:39:03;17.30;;;2.92;;
13002;SDS011;6566;57.702;11.984;2022-10-16T08:49:30;14.25;;;3.25;;
13002;SDS011;6566;57.702;11.984;2022-10-16T08:51:57;16.58;;;3.10;;
13002;SDS011;6566;57.702;11.984;2022-10-16T08:54:37;17.38;;;3.58;;
13002;SDS011;6566;57.702;11.984;2022-10-16T08:57:12;14.80;;;2.47;;
13002;SDS011;6566;57.702;11.984;2022-10-16T08:59:38;15.75;;;2.60;;
13002;SDS011;6566;57.702;11.984;2022-10-16T09:02:51;15.18;;;2.65;;
13002;SDS011;6566;57.702;11.984;2022-10-16T09:12:56;20.10;;;3.10;;
13002;SDS011;6566;57.702;11.984;2022-10-16T09:18:35;14.15;;;2.90;;
13002;SDS011;6566;57.702;11.984;2022-10-16T09:23:49;14.27;;;3.10;;
13002;SDS011;6566;57.702;11.984;2022-10-16T09:26:16;22.00;;;3.30;;
13002;SDS011;6566;57.702;11.984;2022-10-16T09:28:45;14.38;;;2.72;;
13002;SDS011;6566;57.702;11.984;2022-10-16T09:31:28;20.60;;;2.75;;
13002;SDS011;6566;57.702;11.984;2022-10-16T09:33:58;14.77;;;2.75;;
13002;SDS011;6566;57.702;11.984;2022-10-16T09:36:45;13.55;;;2.80;;
13002;SDS011;6566;57.702;11.984;2022-10-16T09:39:12;17.23;;;2.72;;
13002;SDS011;6566;57.702;11.984;2022-10-16T09:41:43;16.50;;;3.45;;
13002;SDS011;6566;57.702;11.984;2022-10-16T09:44:29;9.43;;;2.25;;
13002;SDS011;6566;57.702;11.984;2022-10-16T09:47:12;13.45;;;2.58;;
13002;SDS011;6566;57.702;11.984;2022-10-16T09:50:01;15.55;;;3.13;;
13002;SDS011;6566;57.702;11.984;2022-10-16T09:52:29;19.40;;;3.90;;
13002;SDS011;6566;57.702;11.984;2022-10-16T09:54:57;19.85;;;3.50;;
13002;SDS011;6566;57.702;11.984;2022-10-16T09:57:24;13.52;;;2.65;;
13002;SDS011;6566;57.702;11.984;2022-10-16T09:59:51;18.80;;;3.22;;
13002;SDS011;6566;57.702;11.984;2022-10-16T10:02:20;16.95;;;3.28;;
13002;SDS011;6566;57.702;11.984;2022-10-16T10:04:53;19.20;;;3.50;;
13002;SDS011;6566;57.702;11.984;2022-10-16T10:07:33;17.75;;;3.33;;
13002;SDS011;6566;57.702;11.984;2022-10-16T10:10:03;17.50;;;3.15;;
13002;SDS011;6566;57.702;11.984;2022-10-16T10:12:31;14.73;;;3.08;;
13002;SDS011;6566;57.702;11.984;2022-10-16T10:15:13;16.33;;;3.00;;
13002;SDS011;6566;57.702;11.984;2022-10-16T10:17:48;18.27;;;2.60;;
13002;SDS011;6566;57.702;11.984;2022-10-16T10:20:24;14.23;;;2.92;;
13002;SDS011;6566;57.702;11.984;2022-10-16T10:22:51;10.95;;;2.08;;
13002;SDS011;6566;57.702;11.984;2022-10-16T10:25:28;14.02;;;3.10;;
13002;SDS011;6566;57.702;11.984;2022-10-16T10:38:36;18.42;;;3.55;;
13002;SDS011;6566;57.702;11.984;2022-10-16T11:00:40;18.90;;;3.80;;
13002;SDS011;6566;57.702;11.984;2022-10-16T11:05:40;21.40;;;4.10;;
13002;SDS011;6566;57.702;11.984;2022-10-16T11:11:02;21.13;;;4.32;;
13002;SDS011;6566;57.702;11.984;2022-10-16T11:16:22;26.58;;;4.10;;
13002;SDS011;6566;57.702;11.984;2022-10-16T11:21:41;19.40;;;3.45;;
13002;SDS011;6566;57.702;11.984;2022-10-16T11:24:17;18.40;;;3.65;;
13002;SDS011;6566;57.702;11.984;2022-10-16T11:26:45;15.93;;;3.38;;
13002;SDS011;6566;57.702;11.984;2022-10-16T11:29:17;17.55;;;3.67;;
13002;SDS011;6566;57.702;11.984;2022-10-16T11:31:47;17.67;;;3.20;;
13002;SDS011;6566;57.702;11.984;2022-10-16T11:37:13;19.17;;;3.70;;
13002;SDS011;6566;57.702;11.984;2022-10-16T11:39:40;18.77;;;3.42;;
13002;SDS011;6566;57.702;11.984;2022-10-16T11:42:18;13.85;;;2.47;;
13002;SDS011;6566;57.702;11.984;2022-10-16T11:47:39;15.25;;;3.72;;
13002;SDS011;6566;57.702;11.984;2022-10-16T11:55:35;16.88;;;2.97;;
13002;SDS011;6566;57.702;11.984;2022-10-16T12:03:47;32.35;;;5.88;;
13002;SDS011;6566;57.702;11.984;2022-10-16T12:09:01;52.25;;;6.88;;
13002;SDS011;6566;57.702;11.984;2022-10-16T12:19:23;47.22;;;5.75;;
13002;SDS011;6566;57.702;11.984;2022-10-16T12:21:52;37.28;;;4.30;;
13002;SDS011;6566;57.702;11.984;2022-10-16T12:24:30;34.95;;;3.33;;
13002;SDS011;6566;57.702;11.984;2022-10-16T12:26:57;30.33;;;4.22;;
13002;SDS011;6566;57.702;11.984;2022-10-16T12:29:38;23.40;;;2.72;;
13002;SDS011;6566;57.702;11.984;2022-10-16T12:32:18;26.10;;;3.42;;
13002;SDS011;6566;57.702;11.984;2022-10-16T12:34:47;22.27;;;2.88;;
13002;SDS011;6566;57.702;11.984;2022-10-16T12:39:51;23.70;;;3.50;;
13002;SDS011;6566;57.702;11.984;2022-10-16T12:44:56;19.45;;;2.78;;
13002;SDS011;6566;57.702;11.984;2022-10-16T12:47:34;23.85;;;2.75;;
13002;SDS011;6566;57.702;11.984;2022-10-16T12:50:02;23.58;;;3.58;;
13002;SDS011;6566;57.702;11.984;2022-10-16T12:52:36;23.88;;;2.95;;
13002;SDS011;6566;57.702;11.984;2022-10-16T12:55:04;22.20;;;3.38;;
13002;SDS011;6566;57.702;11.984;2022-10-16T12:57:42;16.33;;;2.50;;
13002;SDS011;6566;57.702;11.984;2022-10-16T13:19:00;14.43;;;2.15;;
13002;SDS011;6566;57.702;11.984;2022-10-16T13:21:42;12.23;;;2.25;;
13002;SDS011;6566;57.702;11.984;2022-10-16T13:29:31;11.52;;;1.98;;
13002;SDS011;6566;57.702;11.984;2022-10-16T13:31:58;6.90;;;1.58;;
13002;SDS011;6566;57.702;11.984;2022-10-16T13:34:43;9.52;;;1.80;;
13002;SDS011;6566;57.702;11.984;2022-10-16T13:37:16;10.75;;;1.92;;
13002;SDS011;6566;57.702;11.984;2022-10-16T13:39:45;13.13;;;2.40;;
13002;SDS011;6566;57.702;11.984;2022-10-16T13:42:16;13.93;;;3.03;;
13002;SDS011;6566;57.702;11.984;2022-10-16T13:44:54;12.30;;;2.10;;
13002;SDS011;6566;57.702;11.984;2022-10-16T13:47:26;15.20;;;3.03;;
13002;SDS011;6566;57.702;11.984;2022-10-16T13:50:09;16.52;;;3.03;;
13002;SDS011;6566;57.702;11.984;2022-10-16T13:52:37;9.88;;;2.42;;
13002;SDS011;6566;57.702;11.984;2022-10-16T13:55:10;14.15;;;2.58;;
13002;SDS011;6566;57.702;11.984;2022-10-16T13:57:35;16.20;;;2.95;;
13002;SDS011;6566;57.702;11.984;2022-10-16T14:00:02;15.90;;;2.80;;
13002;SDS011;6566;57.702;11.984;2022-10-16T14:02:32;15.07;;;2.92;;
13002;SDS011;6566;57.702;11.984;2022-10-16T14:05:01;13.77;;;2.65;;
13002;SDS011;6566;57.702;11.984;2022-10-16T14:07:31;20.08;;;2.55;;
13002;SDS011;6566;57.702;11.984;2022-10-16T14:10:01;19.40;;;2.63;;
13002;SDS011;6566;57.702;11.984;2022-10-16T14:12:29;12.18;;;2.47;;
13002;SDS011;6566;57.702;11.984;2022-10-16T14:14:55;12.70;;;2.83;;
13002;SDS011;6566;57.702;11.984;2022-10-16T14:17:32;13.43;;;2.25;;
13002;SDS011;6566;57.702;11.984;2022-10-16T14:20:00;14.23;;;2.83;;
13002;SDS011;6566;57.702;11.984;2022-10-16T14:24:55;14.00;;;2.75;;
13002;SDS011;6566;57.702;11.984;2022-10-16T14:27:34;11.07;;;2.35;;
13002;SDS011;6566;57.702;11.984;2022-10-16T14:30:20;14.68;;;2.72;;
13002;SDS011;6566;57.702;11.984;2022-10-16T14:33:04;15.05;;;2.53;;
13002;SDS011;6566;57.702;11.984;2022-10-16T14:35:37;15.93;;;2.47;;
13002;SDS011;6566;57.702;11.984;2022-10-16T14:38:05;13.38;;;3.00;;
13002;SDS011;6566;57.702;11.984;2022-10-16T14:40:33;16.77;;;2.55;;
13002;SDS011;6566;57.702;11.984;2022-10-16T14:43:00;12.90;;;2.15;;
13002;SDS011;6566;57.702;11.984;2022-10-16T14:45:28;13.45;;;2.60;;
13002;SDS011;6566;57.702;11.984;2022-10-16T14:47:58;12.43;;;2.60;;
13002;SDS011;6566;57.702;11.984;2022-10-16T14:50:27;17.10;;;3.17;;
13002;SDS011;6566;57.702;11.984;2022-10-16T14:52:55;15.75;;;2.70;;
13002;SDS011;6566;57.702;11.984;2022-10-16T14:55:22;14.30;;;2.95;;
13002;SDS011;6566;57.702;11.984;2022-10-16T14:57:48;12.80;;;3.08;;
13002;SDS011;6566;57.702;11.984;2022-10-16T15:00:18;17.42;;;3.08;;
13002;SDS011;6566;57.702;11.984;2022-10-16T15:02:45;16.38;;;3.67;;
13002;SDS011;6566;57.702;11.984;2022-10-16T15:05:12;13.50;;;3.25;;
13002;SDS011;6566;57.702;11.984;2022-10-16T15:07:42;15.93;;;3.28;;
13002;SDS011;6566;57.702;11.984;2022-10-16T15:10:09;17.10;;;3.60;;
13002;SDS011;6566;57.702;11.984;2022-10-16T15:12:37;16.75;;;3.00;;
13002;SDS011;6566;57.702;11.984;2022-10-16T15:15:25;13.98;;;3.30;;
13002;SDS011;6566;57.702;11.984;2022-10-16T15:17:53;17.63;;;3.45;;
13002;SDS011;6566;57.702;11.984;2022-10-16T15:20:36;13.98;;;2.53;;
13002;SDS011;6566;57.702;11.984;2022-10-16T15:23:15;23.27;;;3.22;;
13002;SDS011;6566;57.702;11.984;2022-10-16T15:25:42;18.00;;;3.05;;
13002;SDS011;6566;57.702;11.984;2022-10-16T15:28:08;16.08;;;2.58;;
13002;SDS011;6566;57.702;11.984;2022-10-16T15:30:35;15.38;;;3.00;;
13002;SDS011;6566;57.702;11.984;2022-10-16T15:33:10;16.98;;;3.08;;
13002;SDS011;6566;57.702;11.984;2022-10-16T15:35:37;17.33;;;3.30;;
13002;SDS011;6566;57.702;11.984;2022-10-16T15:38:04;15.65;;;3.00;;
13002;SDS011;6566;57.702;11.984;2022-10-16T15:40:30;10.65;;;2.50;;
13002;SDS011;6566;57.702;11.984;2022-10-16T15:42:56;14.43;;;2.35;;
13002;SDS011;6566;57.702;11.984;2022-10-16T15:45:22;14.23;;;2.38;;
13002;SDS011;6566;57.702;11.984;2022-10-16T15:47:49;18.52;;;2.83;;
13002;SDS011;6566;57.702;11.984;2022-10-16T15:50:16;18.67;;;3.60;;
13002;SDS011;6566;57.702;11.984;2022-10-16T15:52:42;20.77;;;3.72;;
13002;SDS011;6566;57.702;11.984;2022-10-16T15:55:09;15.73;;;2.67;;
13002;SDS011;6566;57.702;11.984;2022-10-16T15:57:38;18.33;;;3.03;;
13002;SDS011;6566;57.702;11.984;2022-10-16T16:00:07;17.50;;;2.70;;
13002;SDS011;6566;57.702;11.984;2022-10-16T16:02:35;12.95;;;2.53;;
13002;SDS011;6566;57.702;11.984;2022-10-16T16:05:01;16.63;;;2.97;;
13002;SDS011;6566;57.702;11.984;2022-10-16T16:07:28;18.38;;;2.85;;
13002;SDS011;6566;57.702;11.984;2022-10-16T16:09:54;15.38;;;2.72;;
13002;SDS011;6566;57.702;11.984;2022-10-16T16:12:21;18.75;;;2.97;;
13002;SDS011;6566;57.702;11.984;2022-10-16T16:14:47;20.85;;;3.38;;
13002;SDS011;6566;57.702;11.984;2022-10-16T16:17:16;14.05;;;2.78;;
13002;SDS011;6566;57.702;11.984;2022-10-16T16:19:45;18.42;;;3.08;;
13002;SDS011;6566;57.702;11.984;2022-10-16T16:22:13;17.17;;;3.25;;
13002;SDS011;6566;57.702;11.984;2022-10-16T16:24:39;15.25;;;2.17;;
13002;SDS011;6566;57.702;11.984;2022-10-16T16:27:06;16.55;;;2.75;;
13002;SDS011;6566;57.702;11.984;2022-10-16T16:29:34;14.45;;;2.30;;
13002;SDS011;6566;57.702;11.984;2022-10-16T16:32:01;15.18;;;2.80;;
13002;SDS011;6566;57.702;11.984;2022-10-16T16:34:28;16.45;;;3.35;;
13002;SDS011;6566;57.702;11.984;2022-10-16T16:36:57;8.20;;;2.20;;
13002;SDS011;6566;57.702;11.984;2022-10-16T16:39:24;18.70;;;3.20;;
13002;SDS011;6566;57.702;11.984;2022-10-16T16:41:49;15.40;;;2.83;;
13002;SDS011;6566;57.702;11.984;2022-10-16T16:44:16;17.15;;;2.90;;
13002;SDS011;6566;57.702;11.984;2022-10-16T16:46:43;11.60;;;2.50;;
13002;SDS011;6566;57.702;11.984;2022-10-16T16:49:11;17.63;;;3.05;;
13002;SDS011;6566;57.702;11.984;2022-10-16T16:51:41;16.38;;;3.25;;
13002;SDS011;6566;57.702;11.984;2022-10-16T16:54:09;18.50;;;3.33;;
13002;SDS011;6566;57.702;11.984;2022-10-16T16:56:35;16.55;;;2.67;;
13002;SDS011;6566;57.702;11.984;2022-10-16T16:59:01;13.38;;;2.80;;
13002;SDS011;6566;57.702;11.984;2022-10-16T17:01:30;14.65;;;2.53;;
13002;SDS011;6566;57.702;11.984;2022-10-16T17:03:57;14.20;;;2.25;;